Time;durP1;ratioP1;P1;durP2;ratioP2;P2;SDS_P1;SDS_P2;PMS_P1;PMS_P2;Temp;Humidity;BMP_temperature;BMP_pressure;BME280_temperature;BME280_humidity;BME280_pressure;Samples;Min_cycle;Max_cycle;Signal;HPM_P1;HPM_P2
2023/01/26 00:00:03;;;;;;;16.90;15.00;;;;;;;;;;519568;28;1388;-64
2023/01/26 00:00:19;;;;;;;17.48;15.25;;;;;;;;;;518220;28;1467;-64
2023/01/26 00:00:34;;;;;;;17.83;15.27;;;;;;;;;;518092;28;1318;-65
2023/01/26 00:00:50;;;;;;;18.70;15.63;;;;;;;;;;518512;28;1320;-64
2023/01/26 00:01:12;;;;;;;18.27;15.68;;;;;;;;;;520259;28;1801;-65
2023/01/26 00:01:28;;;;;;;17.67;15.68;;;;;;;;;;518937;28;1307;-65
2023/01/26 00:01:44;;;;;;;17.20;15.35;;;;;;;;;;518754;28;1231;-64
2023/01/26 00:01:59;;;;;;;17.38;15.05;;;;;;;;;;519767;28;1454;-65
2023/01/26 00:02:14;;;;;;;18.37;15.50;;;;;;;;;;517568;28;1424;-65
2023/01/26 00:02:30;;;;;;;18.23;15.55;;;;;;;;;;516650;28;1350;-65
2023/01/26 00:02:45;;;;;;;17.33;15.07;;;;;;;;;;515457;28;1730;-65
2023/01/26 00:03:00;;;;;;;17.63;15.40;;;;;;;;;;517341;28;1355;-65
2023/01/26 00:03:16;;;;;;;17.88;15.30;;;;;;;;;;519162;28;1802;-64
2023/01/26 00:03:31;;;;;;;18.90;15.47;;;;;;;;;;516724;28;1311;-64
2023/01/26 00:03:47;;;;;;;18.67;15.70;;;;;;;;;;517144;28;1361;-64
2023/01/26 00:04:03;;;;;;;18.25;15.75;;;;;;;;;;517143;28;1314;-65
2023/01/26 00:04:18;;;;;;;18.30;15.93;;;;;;;;;;516661;28;1751;-65
2023/01/26 00:04:33;;;;;;;19.13;16.10;;;;;;;;;;519866;28;1372;-65
2023/01/26 00:04:49;;;;;;;19.80;16.10;;;;;;;;;;521372;28;1407;-65
2023/01/26 00:05:04;;;;;;;18.50;15.80;;;;;;;;;;521081;28;1326;-65
2023/01/26 00:05:20;;;;;;;18.27;15.60;;;;;;;;;;519288;28;1295;-65
2023/01/26 00:05:36;;;;;;;18.20;15.77;;;;;;;;;;520463;28;1433;-65
2023/01/26 00:05:51;;;;;;;18.75;15.90;;;;;;;;;;518363;28;1364;-64
2023/01/26 00:06:10;;;;;;;18.00;15.50;;;;;;;;;;517467;28;2083;-65
2023/01/26 00:06:25;;;;;;;17.65;15.60;;;;;;;;;;519263;28;1521;-64
2023/01/26 00:06:41;;;;;;;17.73;15.27;;;;;;;;;;519913;28;1384;-65
2023/01/26 00:06:56;;;;;;;18.10;15.30;;;;;;;;;;519026;28;1413;-65
2023/01/26 00:07:11;;;;;;;16.83;14.63;;;;;;;;;;519596;28;1299;-65
2023/01/26 00:07:28;;;;;;;15.77;13.70;;;;;;;;;;517177;28;1378;-65
2023/01/26 00:07:44;;;;;;;15.32;13.55;;;;;;;;;;519324;28;1658;-65
2023/01/26 00:07:59;;;;;;;15.90;14.18;;;;;;;;;;521430;28;1359;-65
2023/01/26 00:08:14;;;;;;;16.00;14.30;;;;;;;;;;523124;28;1363;-65
2023/01/26 00:08:34;;;;;;;15.88;14.18;;;;;;;;;;523863;28;1446;-65
2023/01/26 00:08:51;;;;;;;16.33;14.43;;;;;;;;;;523392;28;1395;-65
2023/01/26 00:09:12;;;;;;;15.90;14.20;;;;;;;;;;519819;28;1854;-65
2023/01/26 00:09:27;;;;;;;16.08;14.38;;;;;;;;;;517747;28;1514;-65
2023/01/26 00:09:42;;;;;;;16.37;14.53;;;;;;;;;;519977;28;1311;-65
2023/01/26 00:09:58;;;;;;;16.27;14.57;;;;;;;;;;519877;28;1289;-65
2023/01/26 00:10:14;;;;;;;16.63;14.93;;;;;;;;;;521032;28;1377;-65
2023/01/26 00:10:29;;;;;;;16.92;15.13;;;;;;;;;;519533;28;1349;-65
2023/01/26 00:10:49;;;;;;;17.00;14.77;;;;;;;;;;516879;28;1724;-65
2023/01/26 00:11:06;;;;;;;17.95;15.25;;;;;;;;;;516325;28;1505;-65
2023/01/26 00:11:25;;;;;;;16.98;14.70;;;;;;;;;;518764;28;1421;-65
2023/01/26 00:11:41;;;;;;;17.25;14.80;;;;;;;;;;518592;28;1327;-66
2023/01/26 00:11:56;;;;;;;17.07;14.83;;;;;;;;;;523116;28;1565;-65
2023/01/26 00:12:11;;;;;;;16.50;14.33;;;;;;;;;;523247;28;1276;-66
2023/01/26 00:12:26;;;;;;;16.40;13.95;;;;;;;;;;523191;28;1410;-65
2023/01/26 00:12:42;;;;;;;15.47;13.77;;;;;;;;;;520172;28;1374;-65
2023/01/26 00:12:57;;;;;;;15.63;13.93;;;;;;;;;;518192;28;1249;-65
2023/01/26 00:13:12;;;;;;;15.35;13.55;;;;;;;;;;519319;28;1421;-65
2023/01/26 00:13:28;;;;;;;14.67;13.10;;;;;;;;;;519007;28;1311;-65
2023/01/26 00:13:43;;;;;;;15.13;13.47;;;;;;;;;;517214;28;1408;-65
2023/01/26 00:13:59;;;;;;;15.10;13.15;;;;;;;;;;518925;28;1593;-65
2023/01/26 00:14:15;;;;;;;15.45;12.98;;;;;;;;;;519718;28;1373;-65
2023/01/26 00:14:48;;;;;;;14.97;12.70;;;;;;;;;;520792;28;1286;-65
2023/01/26 00:15:04;;;;;;;14.10;12.60;;;;;;;;;;520773;28;1110;-65
2023/01/26 00:15:19;;;;;;;14.65;13.15;;;;;;;;;;521359;28;1435;-65
2023/01/26 00:15:35;;;;;;;14.77;13.20;;;;;;;;;;522572;28;1798;-65
2023/01/26 00:15:50;;;;;;;14.55;12.88;;;;;;;;;;520301;28;1222;-65
2023/01/26 00:16:11;;;;;;;14.77;12.87;;;;;;;;;;518915;28;1349;-65
2023/01/26 00:16:27;;;;;;;15.10;13.50;;;;;;;;;;520534;28;1934;-65
2023/01/26 00:16:42;;;;;;;15.32;13.60;;;;;;;;;;518673;28;1277;-65
2023/01/26 00:16:57;;;;;;;15.10;13.13;;;;;;;;;;521130;28;1316;-65
2023/01/26 00:17:13;;;;;;;14.40;12.83;;;;;;;;;;520639;28;1673;-65
2023/01/26 00:17:28;;;;;;;14.65;13.05;;;;;;;;;;521563;28;1430;-65
2023/01/26 00:17:44;;;;;;;14.60;12.90;;;;;;;;;;520897;28;1299;-66
2023/01/26 00:17:59;;;;;;;14.52;12.93;;;;;;;;;;522368;28;1258;-65
2023/01/26 00:18:15;;;;;;;15.33;13.43;;;;;;;;;;522758;28;1202;-65
2023/01/26 00:18:30;;;;;;;15.07;13.20;;;;;;;;;;519395;28;1241;-66
2023/01/26 00:18:46;;;;;;;14.77;13.18;;;;;;;;;;520806;28;1740;-65
2023/01/26 00:19:02;;;;;;;15.07;13.40;;;;;;;;;;521930;28;1389;-65
2023/01/26 00:19:17;;;;;;;14.20;12.60;;;;;;;;;;521294;28;1382;-65
2023/01/26 00:19:32;;;;;;;13.37;11.97;;;;;;;;;;520753;28;1172;-65
2023/01/26 00:19:47;;;;;;;13.65;11.98;;;;;;;;;;521133;28;1356;-65
2023/01/26 00:20:03;;;;;;;14.03;12.10;;;;;;;;;;520150;28;1540;-65
2023/01/26 00:20:18;;;;;;;13.30;11.87;;;;;;;;;;520263;28;1396;-65
2023/01/26 00:20:34;;;;;;;12.95;11.55;;;;;;;;;;517454;28;2079;-65
2023/01/26 00:20:55;;;;;;;13.20;11.70;;;;;;;;;;516519;28;1295;-65
2023/01/26 00:21:14;;;;;;;13.10;11.55;;;;;;;;;;518789;28;1296;-66
2023/01/26 00:21:29;;;;;;;12.63;11.10;;;;;;;;;;519430;28;1450;-65
2023/01/26 00:21:44;;;;;;;12.02;10.73;;;;;;;;;;519629;28;1562;-65
2023/01/26 00:22:00;;;;;;;12.67;11.13;;;;;;;;;;519095;28;1686;-65
2023/01/26 00:22:15;;;;;;;12.73;10.90;;;;;;;;;;520825;28;1157;-65
2023/01/26 00:22:30;;;;;;;11.80;10.53;;;;;;;;;;520309;28;1237;-65
2023/01/26 00:22:46;;;;;;;12.38;11.07;;;;;;;;;;523521;28;1388;-65
2023/01/26 00:23:01;;;;;;;12.50;11.20;;;;;;;;;;522943;28;1367;-65
2023/01/26 00:23:16;;;;;;;12.07;10.77;;;;;;;;;;522633;28;1284;-65
2023/01/26 00:23:33;;;;;;;12.23;10.93;;;;;;;;;;523689;28;1415;-65
2023/01/26 00:23:49;;;;;;;12.57;10.77;;;;;;;;;;520101;28;1270;-65
2023/01/26 00:24:05;;;;;;;12.52;10.55;;;;;;;;;;522350;28;1284;-65
2023/01/26 00:24:20;;;;;;;12.10;10.70;;;;;;;;;;520895;28;1392;-65
2023/01/26 00:24:35;;;;;;;12.05;10.48;;;;;;;;;;518217;28;1252;-65
2023/01/26 00:24:51;;;;;;;11.73;10.40;;;;;;;;;;514803;28;1265;-65
2023/01/26 00:25:06;;;;;;;11.33;10.13;;;;;;;;;;518206;28;1298;-65
2023/01/26 00:25:22;;;;;;;11.55;10.07;;;;;;;;;;520896;28;1690;-65
2023/01/26 00:25:39;;;;;;;12.30;10.23;;;;;;;;;;519255;28;1437;-65
2023/01/26 00:25:54;;;;;;;11.65;10.30;;;;;;;;;;518957;28;1398;-65
2023/01/26 00:26:13;;;;;;;11.83;10.40;;;;;;;;;;521395;28;1536;-66
2023/01/26 00:26:29;;;;;;;11.82;10.48;;;;;;;;;;522796;28;1410;-65
2023/01/26 00:26:44;;;;;;;11.70;10.50;;;;;;;;;;519303;28;1442;-66
2023/01/26 00:26:59;;;;;;;11.63;10.43;;;;;;;;;;523413;28;1798;-66
2023/01/26 00:27:14;;;;;;;11.27;10.03;;;;;;;;;;521729;28;1379;-65
2023/01/26 00:27:31;;;;;;;11.68;10.07;;;;;;;;;;520707;28;1578;-65
2023/01/26 00:27:47;;;;;;;12.02;10.40;;;;;;;;;;520804;28;1266;-65
2023/01/26 00:28:02;;;;;;;11.43;10.10;;;;;;;;;;520114;28;1181;-65
2023/01/26 00:28:18;;;;;;;11.10;9.90;;;;;;;;;;523594;28;1336;-65
2023/01/26 00:28:33;;;;;;;11.27;9.82;;;;;;;;;;521684;28;1743;-65
2023/01/26 00:28:50;;;;;;;11.27;10.03;;;;;;;;;;523345;28;1506;-65
2023/01/26 00:29:05;;;;;;;11.90;10.20;;;;;;;;;;522165;28;1653;-65
2023/01/26 00:29:21;;;;;;;11.63;9.98;;;;;;;;;;522284;28;1221;-65
2023/01/26 00:29:36;;;;;;;10.63;9.50;;;;;;;;;;522473;28;1553;-65
2023/01/26 00:29:51;;;;;;;11.10;9.70;;;;;;;;;;522856;28;1359;-65
2023/01/26 00:30:07;;;;;;;11.05;9.85;;;;;;;;;;522570;28;1758;-65
2023/01/26 00:30:23;;;;;;;10.95;9.85;;;;;;;;;;524163;28;1359;-65
2023/01/26 00:30:38;;;;;;;10.80;9.70;;;;;;;;;;524776;28;1481;-65
2023/01/26 00:31:01;;;;;;;11.00;9.90;;;;;;;;;;521474;28;1368;-65
2023/01/26 00:31:19;;;;;;;11.70;10.50;;;;;;;;;;521539;28;1471;-65
2023/01/26 00:31:34;;;;;;;12.25;10.82;;;;;;;;;;521175;28;1468;-65
2023/01/26 00:31:50;;;;;;;11.50;10.30;;;;;;;;;;517520;28;1623;-65
2023/01/26 00:32:05;;;;;;;11.23;10.03;;;;;;;;;;521195;28;1306;-65
2023/01/26 00:32:20;;;;;;;11.30;10.10;;;;;;;;;;518398;28;1479;-65
2023/01/26 00:32:36;;;;;;;11.40;10.20;;;;;;;;;;519489;28;1402;-66
2023/01/26 00:32:51;;;;;;;11.80;10.27;;;;;;;;;;517392;28;1404;-65
2023/01/26 00:33:07;;;;;;;11.40;10.00;;;;;;;;;;517764;28;1454;-65
2023/01/26 00:33:22;;;;;;;10.88;9.75;;;;;;;;;;521365;28;1707;-65
2023/01/26 00:33:38;;;;;;;11.10;10.00;;;;;;;;;;518842;28;1425;-65
2023/01/26 00:33:54;;;;;;;10.87;9.77;;;;;;;;;;518930;28;1321;-65
2023/01/26 00:34:10;;;;;;;10.95;9.80;;;;;;;;;;520823;28;1482;-66
2023/01/26 00:34:25;;;;;;;11.43;10.10;;;;;;;;;;519972;28;1204;-65
2023/01/26 00:34:40;;;;;;;11.03;9.73;;;;;;;;;;521552;28;1277;-65
2023/01/26 00:34:56;;;;;;;11.30;10.07;;;;;;;;;;525548;28;1390;-65
2023/01/26 00:35:11;;;;;;;11.60;10.35;;;;;;;;;;526776;27;1967;-65
2023/01/26 00:35:26;;;;;;;11.30;10.10;;;;;;;;;;524189;28;1677;-65
2023/01/26 00:35:45;;;;;;;10.70;9.60;;;;;;;;;;523371;28;1333;-66
2023/01/26 00:36:00;;;;;;;9.95;8.95;;;;;;;;;;522320;28;1331;-65
2023/01/26 00:36:16;;;;;;;10.50;9.40;;;;;;;;;;518819;28;1459;-65
2023/01/26 00:36:31;;;;;;;11.05;9.90;;;;;;;;;;518392;28;1924;-65
2023/01/26 00:36:46;;;;;;;10.87;9.77;;;;;;;;;;520247;28;2541;-65
2023/01/26 00:37:02;;;;;;;10.70;9.60;;;;;;;;;;521124;28;1427;-65
2023/01/26 00:37:17;;;;;;;10.13;9.13;;;;;;;;;;521348;28;1280;-65
2023/01/26 00:37:33;;;;;;;9.93;8.90;;;;;;;;;;523613;28;1330;-65
2023/01/26 00:37:48;;;;;;;9.68;8.68;;;;;;;;;;522163;28;1238;-65
2023/01/26 00:38:04;;;;;;;9.37;8.47;;;;;;;;;;519654;28;1288;-65
2023/01/26 00:38:19;;;;;;;9.57;8.57;;;;;;;;;;522440;28;1728;-65
2023/01/26 00:38:34;;;;;;;9.73;8.73;;;;;;;;;;521557;28;1235;-65
2023/01/26 00:38:50;;;;;;;9.70;8.70;;;;;;;;;;517495;28;1201;-65
2023/01/26 00:39:05;;;;;;;9.82;8.75;;;;;;;;;;520418;28;1538;-65
2023/01/26 00:39:20;;;;;;;9.87;8.87;;;;;;;;;;520551;28;1350;-65
2023/01/26 00:39:36;;;;;;;9.80;8.80;;;;;;;;;;520293;28;1213;-65
2023/01/26 00:39:51;;;;;;;10.10;9.07;;;;;;;;;;519081;28;1713;-65
2023/01/26 00:40:07;;;;;;;10.30;9.30;;;;;;;;;;519240;28;1393;-66
2023/01/26 00:40:22;;;;;;;9.70;8.75;;;;;;;;;;520717;28;1423;-66
2023/01/26 00:40:38;;;;;;;9.82;8.82;;;;;;;;;;519337;28;1370;-65
2023/01/26 00:40:54;;;;;;;10.30;9.25;;;;;;;;;;521126;28;1353;-65
2023/01/26 00:42:05;;;;;;;10.17;9.07;;;;;;;;;;522910;28;1336;-65
2023/01/26 00:42:19;;;;;;;10.13;9.10;;;;;;;;;;525766;28;1264;-65
2023/01/26 00:42:35;;;;;;;10.23;9.13;;;;;;;;;;524019;28;1410;-65
2023/01/26 00:42:53;;;;;;;10.03;9.03;;;;;;;;;;523788;28;1125;-66
2023/01/26 00:43:08;;;;;;;10.13;9.13;;;;;;;;;;527036;27;1259;-66
2023/01/26 00:43:23;;;;;;;10.35;9.25;;;;;;;;;;526841;27;1983;-65
2023/01/26 00:43:39;;;;;;;10.40;9.30;;;;;;;;;;526321;27;1410;-65
2023/01/26 00:43:54;;;;;;;10.03;9.00;;;;;;;;;;526116;27;1268;-65
2023/01/26 00:44:09;;;;;;;10.13;9.02;;;;;;;;;;526392;27;1231;-65
2023/01/26 00:44:25;;;;;;;10.43;9.17;;;;;;;;;;525811;28;1338;-66
2023/01/26 00:44:41;;;;;;;10.53;9.27;;;;;;;;;;524956;28;1441;-66
2023/01/26 00:44:56;;;;;;;10.35;9.25;;;;;;;;;;521502;28;1406;-65
2023/01/26 00:45:11;;;;;;;10.63;9.40;;;;;;;;;;520953;28;1309;-65
2023/01/26 00:45:27;;;;;;;10.90;9.30;;;;;;;;;;519638;28;1416;-65
2023/01/26 00:45:43;;;;;;;10.63;9.25;;;;;;;;;;518742;28;1381;-66
2023/01/26 00:45:58;;;;;;;10.43;9.32;;;;;;;;;;518092;28;1643;-66
2023/01/26 00:46:13;;;;;;;10.20;9.20;;;;;;;;;;519152;28;1146;-66
2023/01/26 00:46:29;;;;;;;10.10;9.10;;;;;;;;;;519546;28;1729;-66
2023/01/26 00:46:44;;;;;;;10.50;9.40;;;;;;;;;;521906;28;1431;-66
2023/01/26 00:46:59;;;;;;;10.87;9.70;;;;;;;;;;520299;28;1399;-65
2023/01/26 00:47:16;;;;;;;10.80;9.30;;;;;;;;;;520243;28;1376;-65
2023/01/26 00:47:31;;;;;;;10.23;8.93;;;;;;;;;;521345;28;1302;-65
2023/01/26 00:47:47;;;;;;;9.73;8.73;;;;;;;;;;522800;28;1158;-65
2023/01/26 00:48:03;;;;;;;9.90;8.67;;;;;;;;;;521673;28;1717;-66
2023/01/26 00:48:18;;;;;;;10.32;8.88;;;;;;;;;;518823;28;1322;-66
2023/01/26 00:48:33;;;;;;;9.87;8.73;;;;;;;;;;519227;28;1342;-65
2023/01/26 00:48:48;;;;;;;10.10;9.00;;;;;;;;;;519264;28;1381;-65
2023/01/26 00:49:04;;;;;;;10.33;9.23;;;;;;;;;;521055;28;1625;-65
2023/01/26 00:49:19;;;;;;;10.37;9.27;;;;;;;;;;519401;28;1466;-65
2023/01/26 00:49:34;;;;;;;10.63;9.53;;;;;;;;;;522363;28;1249;-65
2023/01/26 00:49:50;;;;;;;10.68;9.57;;;;;;;;;;522163;28;1946;-65
2023/01/26 00:50:06;;;;;;;10.70;9.60;;;;;;;;;;521314;28;1458;-66
2023/01/26 00:50:21;;;;;;;10.85;9.68;;;;;;;;;;523142;28;1225;-65
2023/01/26 00:50:36;;;;;;;10.80;9.60;;;;;;;;;;522197;28;1646;-66
2023/01/26 00:50:52;;;;;;;10.63;9.52;;;;;;;;;;523425;28;1367;-66
2023/01/26 00:51:07;;;;;;;10.80;9.70;;;;;;;;;;519485;28;1405;-66
2023/01/26 00:51:22;;;;;;;10.73;9.63;;;;;;;;;;522902;28;2060;-65
2023/01/26 00:51:38;;;;;;;10.73;9.47;;;;;;;;;;520990;28;1372;-65
2023/01/26 00:51:53;;;;;;;10.40;9.30;;;;;;;;;;522891;28;1404;-65
2023/01/26 00:52:09;;;;;;;10.20;9.10;;;;;;;;;;524818;28;1414;-65
2023/01/26 00:52:25;;;;;;;10.43;9.00;;;;;;;;;;523497;28;1255;-65
2023/01/26 00:52:40;;;;;;;10.80;9.23;;;;;;;;;;523432;28;1332;-65
2023/01/26 00:52:56;;;;;;;10.40;9.30;;;;;;;;;;523811;28;1891;-66
2023/01/26 00:53:11;;;;;;;10.02;9.02;;;;;;;;;;522352;28;1356;-65
2023/01/26 00:53:27;;;;;;;9.93;8.93;;;;;;;;;;522833;28;1231;-66
2023/01/26 00:53:42;;;;;;;10.10;9.03;;;;;;;;;;522399;28;1228;-66
2023/01/26 00:53:57;;;;;;;10.33;9.13;;;;;;;;;;521478;28;1341;-66
2023/01/26 00:54:13;;;;;;;10.30;9.20;;;;;;;;;;519138;28;1341;-66
2023/01/26 00:54:28;;;;;;;10.10;9.00;;;;;;;;;;518823;28;1575;-65
2023/01/26 00:54:44;;;;;;;9.80;8.80;;;;;;;;;;517944;28;1219;-65
2023/01/26 00:54:59;;;;;;;9.73;8.73;;;;;;;;;;518882;28;1538;-65
2023/01/26 00:55:14;;;;;;;9.73;8.73;;;;;;;;;;519325;28;1407;-65
2023/01/26 00:55:32;;;;;;;10.07;8.80;;;;;;;;;;518424;28;1436;-65
2023/01/26 00:55:48;;;;;;;10.13;8.95;;;;;;;;;;520519;28;1392;-65
2023/01/26 00:56:03;;;;;;;10.63;9.20;;;;;;;;;;520878;28;1625;-65
2023/01/26 00:56:18;;;;;;;10.10;8.80;;;;;;;;;;519009;28;1230;-65
2023/01/26 00:56:35;;;;;;;10.07;8.97;;;;;;;;;;517179;28;2005;-65
2023/01/26 00:56:50;;;;;;;9.93;8.93;;;;;;;;;;519755;28;1283;-65
2023/01/26 00:57:05;;;;;;;9.93;8.93;;;;;;;;;;520224;28;1356;-65
2023/01/26 00:57:21;;;;;;;9.80;8.80;;;;;;;;;;519564;28;1369;-65
2023/01/26 00:57:36;;;;;;;9.68;8.68;;;;;;;;;;522829;28;1245;-65
2023/01/26 00:57:51;;;;;;;9.70;8.70;;;;;;;;;;521580;28;1767;-65
2023/01/26 00:58:07;;;;;;;9.97;8.90;;;;;;;;;;519236;28;1184;-65
2023/01/26 00:58:22;;;;;;;10.05;8.95;;;;;;;;;;520797;28;1372;-65
2023/01/26 00:58:39;;;;;;;10.05;8.98;;;;;;;;;;517892;28;1207;-65
2023/01/26 00:58:54;;;;;;;10.50;9.40;;;;;;;;;;518597;28;1605;-65
2023/01/26 00:59:10;;;;;;;10.47;9.37;;;;;;;;;;518142;28;1326;-65
2023/01/26 00:59:25;;;;;;;10.63;9.53;;;;;;;;;;518723;28;1667;-65
2023/01/26 00:59:41;;;;;;;10.68;9.57;;;;;;;;;;520306;28;1503;-65
2023/01/26 00:59:56;;;;;;;10.63;9.53;;;;;;;;;;521241;28;1349;-65
2023/01/26 01:00:15;;;;;;;10.73;9.60;;;;;;;;;;521152;28;1207;-65
2023/01/26 01:00:32;;;;;;;10.45;9.35;;;;;;;;;;523243;28;1495;-65
2023/01/26 01:00:47;;;;;;;10.18;9.10;;;;;;;;;;519137;28;1346;-65
2023/01/26 01:01:03;;;;;;;10.60;9.50;;;;;;;;;;520472;28;1919;-64
2023/01/26 01:01:18;;;;;;;10.97;9.83;;;;;;;;;;519014;28;1172;-64
2023/01/26 01:01:33;;;;;;;11.13;9.73;;;;;;;;;;518404;28;1385;-64
2023/01/26 01:01:49;;;;;;;10.98;9.75;;;;;;;;;;519256;28;1195;-64
2023/01/26 01:02:04;;;;;;;11.10;9.90;;;;;;;;;;518741;28;1378;-64
2023/01/26 01:02:20;;;;;;;11.60;10.10;;;;;;;;;;520739;28;1608;-65
2023/01/26 01:02:35;;;;;;;11.50;10.30;;;;;;;;;;521558;28;1382;-65
2023/01/26 01:02:50;;;;;;;11.38;10.18;;;;;;;;;;520581;28;1403;-65
2023/01/26 01:03:06;;;;;;;11.37;10.00;;;;;;;;;;522443;28;1447;-65
2023/01/26 01:03:21;;;;;;;11.57;10.03;;;;;;;;;;525133;28;1261;-65
2023/01/26 01:03:36;;;;;;;11.13;9.83;;;;;;;;;;521835;28;1345;-65
2023/01/26 01:03:52;;;;;;;11.47;10.27;;;;;;;;;;523386;28;1414;-65
2023/01/26 01:04:07;;;;;;;12.18;10.80;;;;;;;;;;520395;28;1412;-65
2023/01/26 01:04:23;;;;;;;11.60;10.20;;;;;;;;;;520186;28;1226;-65
2023/01/26 01:04:38;;;;;;;11.70;10.05;;;;;;;;;;520534;28;1102;-65
2023/01/26 01:04:53;;;;;;;12.20;10.33;;;;;;;;;;519867;28;1300;-65
2023/01/26 01:05:09;;;;;;;12.27;10.23;;;;;;;;;;518789;28;1359;-65
2023/01/26 01:05:26;;;;;;;11.70;10.07;;;;;;;;;;519267;28;1309;-65
2023/01/26 01:05:41;;;;;;;11.65;10.30;;;;;;;;;;521023;28;1816;-66
2023/01/26 01:05:57;;;;;;;12.10;10.60;;;;;;;;;;520931;28;1221;-65
2023/01/26 01:06:12;;;;;;;11.45;10.25;;;;;;;;;;523238;28;1397;-65
2023/01/26 01:06:27;;;;;;;11.53;10.33;;;;;;;;;;520760;28;1328;-65
2023/01/26 01:06:43;;;;;;;11.20;10.00;;;;;;;;;;520640;28;1239;-65
2023/01/26 01:06:58;;;;;;;11.13;9.93;;;;;;;;;;520983;28;1308;-65
2023/01/26 01:07:13;;;;;;;11.60;10.27;;;;;;;;;;521149;28;1665;-65
2023/01/26 01:07:29;;;;;;;11.50;10.25;;;;;;;;;;520044;28;1342;-65
2023/01/26 01:07:44;;;;;;;12.03;10.50;;;;;;;;;;522725;28;1313;-65
2023/01/26 01:08:00;;;;;;;11.87;10.33;;;;;;;;;;524805;28;1269;-65
2023/01/26 01:08:15;;;;;;;11.27;10.07;;;;;;;;;;525188;28;1156;-65
2023/01/26 01:08:30;;;;;;;11.37;10.17;;;;;;;;;;521082;28;1243;-65
2023/01/26 01:08:46;;;;;;;11.15;9.88;;;;;;;;;;521216;28;1413;-65
2023/01/26 01:09:02;;;;;;;11.70;10.03;;;;;;;;;;518924;28;2277;-65
2023/01/26 01:09:18;;;;;;;11.88;10.35;;;;;;;;;;517841;28;1318;-65
2023/01/26 01:09:33;;;;;;;11.63;10.43;;;;;;;;;;517579;28;1570;-65
2023/01/26 01:09:48;;;;;;;11.57;10.37;;;;;;;;;;519851;28;1348;-65
2023/01/26 01:10:04;;;;;;;10.90;9.70;;;;;;;;;;522530;28;1304;-65
2023/01/26 01:10:20;;;;;;;11.13;9.90;;;;;;;;;;522741;28;1439;-65
2023/01/26 01:10:35;;;;;;;11.45;10.25;;;;;;;;;;522277;28;1821;-65
2023/01/26 01:11:01;;;;;;;11.00;9.80;;;;;;;;;;522122;28;1381;-65
2023/01/26 01:11:17;;;;;;;10.90;9.80;;;;;;;;;;525204;28;1404;-65
2023/01/26 01:11:32;;;;;;;11.23;10.02;;;;;;;;;;523342;28;1252;-65
2023/01/26 01:11:48;;;;;;;11.33;10.13;;;;;;;;;;523567;28;1340;-65
2023/01/26 01:12:03;;;;;;;11.57;10.37;;;;;;;;;;520448;28;1428;-65
2023/01/26 01:12:19;;;;;;;11.13;9.93;;;;;;;;;;517696;28;1200;-65
2023/01/26 01:12:34;;;;;;;10.60;9.50;;;;;;;;;;519294;28;1357;-65
2023/01/26 01:12:49;;;;;;;11.32;9.90;;;;;;;;;;518885;28;1278;-65
2023/01/26 01:13:05;;;;;;;11.23;10.00;;;;;;;;;;520905;28;1642;-65
2023/01/26 01:13:20;;;;;;;10.90;9.80;;;;;;;;;;520675;28;1273;-65
2023/01/26 01:13:36;;;;;;;10.68;9.55;;;;;;;;;;522997;28;1231;-65
2023/01/26 01:13:51;;;;;;;10.75;9.48;;;;;;;;;;523518;28;1108;-65
2023/01/26 01:14:07;;;;;;;11.13;9.73;;;;;;;;;;522656;28;1439;-65
2023/01/26 01:14:22;;;;;;;11.13;9.80;;;;;;;;;;523072;28;1381;-65
2023/01/26 01:14:37;;;;;;;10.90;9.60;;;;;;;;;;520984;28;1175;-65
2023/01/26 01:14:53;;;;;;;10.50;9.33;;;;;;;;;;523258;28;1379;-65
2023/01/26 01:15:09;;;;;;;10.68;9.40;;;;;;;;;;522132;28;1731;-65
2023/01/26 01:15:24;;;;;;;10.98;9.63;;;;;;;;;;519300;28;3333;-65
2023/01/26 01:15:39;;;;;;;10.90;9.70;;;;;;;;;;518712;28;1442;-65
2023/01/26 01:15:55;;;;;;;10.87;9.70;;;;;;;;;;515824;28;1333;-65
2023/01/26 01:16:12;;;;;;;11.18;9.82;;;;;;;;;;517424;28;1365;-65
2023/01/26 01:16:27;;;;;;;11.30;10.10;;;;;;;;;;518877;28;1986;-65
2023/01/26 01:16:44;;;;;;;11.63;9.93;;;;;;;;;;519294;28;1468;-65
2023/01/26 01:17:00;;;;;;;12.10;10.10;;;;;;;;;;518369;28;1591;-65
2023/01/26 01:17:15;;;;;;;11.27;10.07;;;;;;;;;;520302;28;1727;-65
2023/01/26 01:17:30;;;;;;;11.10;9.90;;;;;;;;;;520258;28;1309;-65
2023/01/26 01:17:46;;;;;;;11.37;10.13;;;;;;;;;;519786;28;1222;-65
2023/01/26 01:18:01;;;;;;;11.48;10.27;;;;;;;;;;518592;28;1588;-65
2023/01/26 01:18:16;;;;;;;11.17;9.97;;;;;;;;;;520617;28;1376;-65
2023/01/26 01:18:31;;;;;;;11.13;9.93;;;;;;;;;;521831;28;1488;-65
2023/01/26 01:18:47;;;;;;;11.10;9.90;;;;;;;;;;521651;28;1433;-65
2023/01/26 01:19:03;;;;;;;11.13;9.97;;;;;;;;;;522909;28;1205;-65
2023/01/26 01:19:18;;;;;;;11.40;10.20;;;;;;;;;;519479;28;1246;-65
2023/01/26 01:19:33;;;;;;;11.40;10.20;;;;;;;;;;518725;28;1286;-65
2023/01/26 01:19:49;;;;;;;11.80;10.35;;;;;;;;;;520224;28;1369;-65
2023/01/26 01:20:06;;;;;;;11.47;10.20;;;;;;;;;;519744;28;1404;-65
2023/01/26 01:20:21;;;;;;;11.50;10.30;;;;;;;;;;519843;28;1526;-65
2023/01/26 01:20:39;;;;;;;11.90;10.20;;;;;;;;;;518995;28;1216;-65
2023/01/26 01:20:55;;;;;;;12.27;10.20;;;;;;;;;;521687;28;1385;-65
2023/01/26 01:21:15;;;;;;;11.93;10.37;;;;;;;;;;520287;28;1135;-65
2023/01/26 01:21:31;;;;;;;12.38;10.75;;;;;;;;;;519971;28;1373;-65
2023/01/26 01:21:47;;;;;;;12.63;10.77;;;;;;;;;;520275;28;1713;-65
2023/01/26 01:22:02;;;;;;;12.50;10.70;;;;;;;;;;517811;28;1414;-65
2023/01/26 01:22:18;;;;;;;12.52;10.75;;;;;;;;;;520666;28;1421;-65
2023/01/26 01:22:35;;;;;;;12.57;11.00;;;;;;;;;;518503;28;1361;-65
2023/01/26 01:22:50;;;;;;;12.43;10.98;;;;;;;;;;519241;28;1448;-65
2023/01/26 01:23:06;;;;;;;11.95;10.65;;;;;;;;;;518061;28;1307;-65
2023/01/26 01:23:21;;;;;;;12.30;10.63;;;;;;;;;;518491;28;1897;-65
2023/01/26 01:23:37;;;;;;;12.43;10.55;;;;;;;;;;519438;28;1147;-65
2023/01/26 01:23:52;;;;;;;12.07;10.68;;;;;;;;;;518940;28;1440;-65
2023/01/26 01:24:08;;;;;;;12.03;10.70;;;;;;;;;;518361;28;1252;-66
2023/01/26 01:24:23;;;;;;;11.48;10.25;;;;;;;;;;517079;28;1346;-65
2023/01/26 01:24:39;;;;;;;11.60;10.30;;;;;;;;;;520114;28;1386;-65
2023/01/26 01:24:54;;;;;;;11.75;10.50;;;;;;;;;;519340;28;1782;-65
2023/01/26 01:25:09;;;;;;;11.73;10.10;;;;;;;;;;517288;28;1203;-65
2023/01/26 01:25:25;;;;;;;12.23;10.20;;;;;;;;;;517386;28;1642;-65
2023/01/26 01:25:40;;;;;;;11.80;10.48;;;;;;;;;;516013;28;1627;-65
2023/01/26 01:25:57;;;;;;;11.67;10.47;;;;;;;;;;516075;28;1437;-65
2023/01/26 01:26:13;;;;;;;11.70;10.50;;;;;;;;;;515682;28;1339;-65
2023/01/26 01:26:29;;;;;;;12.45;11.15;;;;;;;;;;520788;28;1566;-65
2023/01/26 01:26:44;;;;;;;12.77;11.43;;;;;;;;;;519698;28;1457;-65
2023/01/26 01:27:00;;;;;;;12.97;11.50;;;;;;;;;;520980;28;1395;-65
2023/01/26 01:27:15;;;;;;;13.90;11.75;;;;;;;;;;521395;28;1404;-65
2023/01/26 01:27:31;;;;;;;14.13;11.90;;;;;;;;;;519384;28;1064;-65
2023/01/26 01:27:46;;;;;;;13.90;12.07;;;;;;;;;;519371;28;1262;-66
2023/01/26 01:28:01;;;;;;;13.50;11.73;;;;;;;;;;518658;28;1534;-65
2023/01/26 01:28:16;;;;;;;12.97;11.40;;;;;;;;;;518277;28;2215;-65
2023/01/26 01:28:33;;;;;;;13.25;11.60;;;;;;;;;;519056;28;1492;-65
2023/01/26 01:28:53;;;;;;;13.85;11.90;;;;;;;;;;518989;28;1270;-65
2023/01/26 01:29:11;;;;;;;15.13;12.48;;;;;;;;;;520424;28;1452;-65
2023/01/26 01:29:27;;;;;;;15.32;12.70;;;;;;;;;;520825;28;1446;-65
2023/01/26 01:29:42;;;;;;;15.30;12.93;;;;;;;;;;522374;28;1402;-65
2023/01/26 01:29:57;;;;;;;14.80;12.63;;;;;;;;;;525524;28;1310;-65
2023/01/26 01:30:13;;;;;;;15.25;12.70;;;;;;;;;;525310;28;1698;-65
2023/01/26 01:30:28;;;;;;;15.87;13.20;;;;;;;;;;522509;28;1632;-65
2023/01/26 01:30:43;;;;;;;15.03;12.80;;;;;;;;;;523213;28;1434;-65
2023/01/26 01:31:02;;;;;;;14.55;12.40;;;;;;;;;;519254;28;1414;-65
2023/01/26 01:31:17;;;;;;;15.18;12.98;;;;;;;;;;520345;28;1762;-65
2023/01/26 01:31:32;;;;;;;16.00;13.48;;;;;;;;;;521300;28;1322;-65
2023/01/26 01:31:48;;;;;;;15.63;13.00;;;;;;;;;;518888;28;1357;-65
2023/01/26 01:32:03;;;;;;;15.37;12.80;;;;;;;;;;518447;28;1316;-65
2023/01/26 01:32:19;;;;;;;15.43;12.82;;;;;;;;;;520402;28;1360;-65
2023/01/26 01:32:35;;;;;;;14.87;12.83;;;;;;;;;;520050;28;1314;-65
2023/01/26 01:32:51;;;;;;;15.35;13.27;;;;;;;;;;520696;28;1536;-65
2023/01/26 01:33:06;;;;;;;16.07;13.33;;;;;;;;;;522245;28;1254;-65
2023/01/26 01:33:22;;;;;;;15.85;13.23;;;;;;;;;;521176;28;1376;-65
2023/01/26 01:33:38;;;;;;;15.15;12.90;;;;;;;;;;520009;28;1690;-65
2023/01/26 01:33:53;;;;;;;15.37;13.17;;;;;;;;;;521634;28;1475;-65
2023/01/26 01:34:08;;;;;;;15.23;13.23;;;;;;;;;;520255;28;1210;-65
2023/01/26 01:34:24;;;;;;;15.20;13.10;;;;;;;;;;523526;28;1342;-65
2023/01/26 01:34:39;;;;;;;15.70;13.43;;;;;;;;;;520570;28;1716;-65
2023/01/26 01:34:54;;;;;;;15.27;13.17;;;;;;;;;;518927;28;1440;-65
2023/01/26 01:35:10;;;;;;;15.53;13.20;;;;;;;;;;519195;28;1350;-65
2023/01/26 01:35:25;;;;;;;15.60;13.15;;;;;;;;;;517339;28;1214;-65
2023/01/26 01:35:40;;;;;;;15.67;13.00;;;;;;;;;;518514;28;1289;-65
2023/01/26 01:36:00;;;;;;;15.63;13.33;;;;;;;;;;518972;28;1392;-65
2023/01/26 01:36:16;;;;;;;15.13;13.35;;;;;;;;;;520109;28;1633;-65